sensor_id;sensor_type;location;lat;lon;timestamp;P1;durP1;ratioP1;P2;durP2;ratioP2
46745;SDS011;32493;50.514;9.678;2023-07-31T00:01:41;8.85;;;1.75;;
46745;SDS011;32493;50.514;9.678;2023-07-31T00:03:47;5.20;;;1.92;;
46745;SDS011;32493;50.514;9.678;2023-07-31T00:05:53;6.78;;;2.25;;
46745;SDS011;32493;50.514;9.678;2023-07-31T00:08:01;7.53;;;1.80;;
46745;SDS011;32493;50.514;9.678;2023-07-31T00:10:07;5.70;;;1.92;;
46745;SDS011;32493;50.514;9.678;2023-07-31T00:12:16;5.28;;;1.80;;
46745;SDS011;32493;50.514;9.678;2023-07-31T00:14:22;4.85;;;1.60;;
46745;SDS011;32493;50.514;9.678;2023-07-31T00:16:27;6.82;;;2.10;;
46745;SDS011;32493;50.514;9.678;2023-07-31T00:18:34;4.63;;;1.67;;
46745;SDS011;32493;50.514;9.678;2023-07-31T00:20:43;9.50;;;2.00;;
46745;SDS011;32493;50.514;9.678;2023-07-31T00:22:49;7.80;;;1.80;;
46745;SDS011;32493;50.514;9.678;2023-07-31T00:24:52;5.18;;;1.67;;
46745;SDS011;32493;50.514;9.678;2023-07-31T00:26:58;9.30;;;2.00;;
46745;SDS011;32493;50.514;9.678;2023-07-31T00:29:07;6.40;;;1.85;;
46745;SDS011;32493;50.514;9.678;2023-07-31T00:31:16;6.47;;;1.83;;
46745;SDS011;32493;50.514;9.678;2023-07-31T00:33:19;5.75;;;1.70;;
46745;SDS011;32493;50.514;9.678;2023-07-31T00:35:25;8.35;;;1.77;;
46745;SDS011;32493;50.514;9.678;2023-07-31T00:37:31;7.38;;;2.15;;
46745;SDS011;32493;50.514;9.678;2023-07-31T00:39:37;9.77;;;1.75;;
46745;SDS011;32493;50.514;9.678;2023-07-31T00:41:43;6.53;;;2.03;;
46745;SDS011;32493;50.514;9.678;2023-07-31T00:43:51;4.10;;;1.63;;
46745;SDS011;32493;50.514;9.678;2023-07-31T00:46:00;10.52;;;2.72;;
46745;SDS011;32493;50.514;9.678;2023-07-31T00:48:06;4.28;;;1.70;;
46745;SDS011;32493;50.514;9.678;2023-07-31T00:50:11;5.40;;;2.00;;
46745;SDS011;32493;50.514;9.678;2023-07-31T00:52:24;5.80;;;1.50;;
46745;SDS011;32493;50.514;9.678;2023-07-31T00:54:33;8.10;;;2.13;;
46745;SDS011;32493;50.514;9.678;2023-07-31T00:56:40;6.50;;;1.80;;
46745;SDS011;32493;50.514;9.678;2023-07-31T00:59:03;5.97;;;1.23;;
46745;SDS011;32493;50.514;9.678;2023-07-31T01:01:13;4.28;;;2.20;;
46745;SDS011;32493;50.514;9.678;2023-07-31T01:03:23;5.05;;;1.58;;
46745;SDS011;32493;50.514;9.678;2023-07-31T01:05:29;4.72;;;1.90;;
46745;SDS011;32493;50.514;9.678;2023-07-31T01:07:47;5.45;;;1.95;;
46745;SDS011;32493;50.514;9.678;2023-07-31T01:10:04;6.85;;;2.05;;
46745;SDS011;32493;50.514;9.678;2023-07-31T01:12:19;5.70;;;2.13;;
46745;SDS011;32493;50.514;9.678;2023-07-31T01:14:27;10.70;;;1.95;;
46745;SDS011;32493;50.514;9.678;2023-07-31T01:16:36;4.18;;;1.90;;
46745;SDS011;32493;50.514;9.678;2023-07-31T01:18:42;6.25;;;1.65;;
46745;SDS011;32493;50.514;9.678;2023-07-31T01:20:54;6.03;;;1.73;;
46745;SDS011;32493;50.514;9.678;2023-07-31T01:25:58;5.07;;;2.08;;
46745;SDS011;32493;50.514;9.678;2023-07-31T01:28:10;8.73;;;2.50;;
46745;SDS011;32493;50.514;9.678;2023-07-31T01:30:20;4.85;;;1.90;;
46745;SDS011;32493;50.514;9.678;2023-07-31T01:32:30;5.30;;;1.67;;
46745;SDS011;32493;50.514;9.678;2023-07-31T01:34:37;6.50;;;1.60;;
46745;SDS011;32493;50.514;9.678;2023-07-31T01:36:44;6.72;;;2.13;;
46745;SDS011;32493;50.514;9.678;2023-07-31T01:38:49;8.15;;;2.90;;
46745;SDS011;32493;50.514;9.678;2023-07-31T01:40:59;4.65;;;1.67;;
46745;SDS011;32493;50.514;9.678;2023-07-31T01:43:06;5.70;;;1.88;;
46745;SDS011;32493;50.514;9.678;2023-07-31T01:45:13;4.20;;;1.90;;
46745;SDS011;32493;50.514;9.678;2023-07-31T01:47:19;4.03;;;1.63;;
46745;SDS011;32493;50.514;9.678;2023-07-31T01:49:27;8.43;;;2.38;;
46745;SDS011;32493;50.514;9.678;2023-07-31T01:51:32;4.63;;;1.85;;
46745;SDS011;32493;50.514;9.678;2023-07-31T01:53:38;6.20;;;2.25;;
46745;SDS011;32493;50.514;9.678;2023-07-31T01:55:44;6.40;;;2.05;;
46745;SDS011;32493;50.514;9.678;2023-07-31T01:57:53;6.63;;;2.20;;
46745;SDS011;32493;50.514;9.678;2023-07-31T01:59:59;8.55;;;2.28;;
46745;SDS011;32493;50.514;9.678;2023-07-31T02:02:14;10.25;;;3.00;;
46745;SDS011;32493;50.514;9.678;2023-07-31T02:04:20;9.27;;;2.72;;
46745;SDS011;32493;50.514;9.678;2023-07-31T02:06:26;5.60;;;2.00;;
46745;SDS011;32493;50.514;9.678;2023-07-31T02:08:33;8.55;;;2.33;;
46745;SDS011;32493;50.514;9.678;2023-07-31T02:10:41;6.40;;;2.13;;
46745;SDS011;32493;50.514;9.678;2023-07-31T02:12:47;6.32;;;2.17;;
46745;SDS011;32493;50.514;9.678;2023-07-31T02:14:56;6.78;;;2.08;;
46745;SDS011;32493;50.514;9.678;2023-07-31T02:17:01;5.20;;;1.65;;
46745;SDS011;32493;50.514;9.678;2023-07-31T02:19:07;6.80;;;2.05;;
46745;SDS011;32493;50.514;9.678;2023-07-31T02:21:13;10.02;;;2.53;;
46745;SDS011;32493;50.514;9.678;2023-07-31T02:23:19;5.15;;;2.15;;
46745;SDS011;32493;50.514;9.678;2023-07-31T02:25:25;5.70;;;2.08;;
46745;SDS011;32493;50.514;9.678;2023-07-31T02:27:33;11.18;;;1.85;;
46745;SDS011;32493;50.514;9.678;2023-07-31T02:29:43;7.40;;;2.20;;
46745;SDS011;32493;50.514;9.678;2023-07-31T02:31:53;9.48;;;2.08;;
46745;SDS011;32493;50.514;9.678;2023-07-31T02:33:59;6.50;;;2.20;;
46745;SDS011;32493;50.514;9.678;2023-07-31T02:36:05;5.60;;;2.15;;
46745;SDS011;32493;50.514;9.678;2023-07-31T02:38:11;5.38;;;2.00;;
46745;SDS011;32493;50.514;9.678;2023-07-31T02:40:17;4.13;;;1.90;;
46745;SDS011;32493;50.514;9.678;2023-07-31T02:42:36;8.55;;;1.85;;
46745;SDS011;32493;50.514;9.678;2023-07-31T02:44:45;7.07;;;2.20;;
46745;SDS011;32493;50.514;9.678;2023-07-31T02:47:00;6.40;;;2.33;;
46745;SDS011;32493;50.514;9.678;2023-07-31T02:49:08;8.65;;;2.45;;
46745;SDS011;32493;50.514;9.678;2023-07-31T02:51:14;8.23;;;1.90;;
46745;SDS011;32493;50.514;9.678;2023-07-31T02:53:17;8.48;;;2.30;;
46745;SDS011;32493;50.514;9.678;2023-07-31T02:55:23;4.88;;;1.80;;
46745;SDS011;32493;50.514;9.678;2023-07-31T02:57:29;4.30;;;1.95;;
46745;SDS011;32493;50.514;9.678;2023-07-31T02:59:37;6.55;;;2.30;;
46745;SDS011;32493;50.514;9.678;2023-07-31T03:01:42;7.28;;;2.25;;
46745;SDS011;32493;50.514;9.678;2023-07-31T03:03:48;6.75;;;2.00;;
46745;SDS011;32493;50.514;9.678;2023-07-31T03:05:55;7.82;;;2.35;;
46745;SDS011;32493;50.514;9.678;2023-07-31T03:08:00;5.55;;;2.33;;
46745;SDS011;32493;50.514;9.678;2023-07-31T03:10:07;6.80;;;1.98;;
46745;SDS011;32493;50.514;9.678;2023-07-31T03:12:13;11.00;;;2.50;;
46745;SDS011;32493;50.514;9.678;2023-07-31T03:14:19;5.97;;;2.05;;
46745;SDS011;32493;50.514;9.678;2023-07-31T03:16:24;7.50;;;2.00;;
46745;SDS011;32493;50.514;9.678;2023-07-31T03:18:32;6.22;;;2.05;;
46745;SDS011;32493;50.514;9.678;2023-07-31T03:20:44;5.82;;;1.80;;
46745;SDS011;32493;50.514;9.678;2023-07-31T03:22:50;9.18;;;2.58;;
46745;SDS011;32493;50.514;9.678;2023-07-31T03:24:56;7.00;;;2.10;;
46745;SDS011;32493;50.514;9.678;2023-07-31T03:27:02;10.10;;;1.92;;
46745;SDS011;32493;50.514;9.678;2023-07-31T03:29:08;6.70;;;2.40;;
46745;SDS011;32493;50.514;9.678;2023-07-31T03:31:14;6.97;;;2.30;;
46745;SDS011;32493;50.514;9.678;2023-07-31T03:33:20;6.70;;;2.20;;
46745;SDS011;32493;50.514;9.678;2023-07-31T03:35:29;8.85;;;2.08;;
46745;SDS011;32493;50.514;9.678;2023-07-31T03:37:38;6.05;;;2.30;;
46745;SDS011;32493;50.514;9.678;2023-07-31T03:39:46;6.90;;;2.03;;
46745;SDS011;32493;50.514;9.678;2023-07-31T03:41:52;6.82;;;2.08;;
46745;SDS011;32493;50.514;9.678;2023-07-31T03:43:57;5.82;;;1.95;;
46745;SDS011;32493;50.514;9.678;2023-07-31T03:48:10;8.20;;;2.13;;
46745;SDS011;32493;50.514;9.678;2023-07-31T03:50:17;6.65;;;2.03;;
46745;SDS011;32493;50.514;9.678;2023-07-31T03:52:27;8.65;;;2.67;;
46745;SDS011;32493;50.514;9.678;2023-07-31T03:54:36;7.15;;;2.60;;
46745;SDS011;32493;50.514;9.678;2023-07-31T03:56:41;5.55;;;2.40;;
46745;SDS011;32493;50.514;9.678;2023-07-31T03:58:47;9.65;;;2.33;;
46745;SDS011;32493;50.514;9.678;2023-07-31T04:00:55;6.20;;;1.98;;
46745;SDS011;32493;50.514;9.678;2023-07-31T04:03:01;8.50;;;2.13;;
46745;SDS011;32493;50.514;9.678;2023-07-31T04:05:07;11.88;;;2.55;;
46745;SDS011;32493;50.514;9.678;2023-07-31T04:07:16;7.07;;;2.00;;
46745;SDS011;32493;50.514;9.678;2023-07-31T04:09:24;5.13;;;2.08;;
46745;SDS011;32493;50.514;9.678;2023-07-31T04:11:35;4.72;;;2.20;;
46745;SDS011;32493;50.514;9.678;2023-07-31T04:13:42;5.40;;;2.60;;
46745;SDS011;32493;50.514;9.678;2023-07-31T04:15:48;5.43;;;2.10;;
46745;SDS011;32493;50.514;9.678;2023-07-31T04:17:54;10.30;;;2.15;;
46745;SDS011;32493;50.514;9.678;2023-07-31T04:20:00;4.32;;;2.15;;
46745;SDS011;32493;50.514;9.678;2023-07-31T04:22:10;6.85;;;2.13;;
46745;SDS011;32493;50.514;9.678;2023-07-31T04:24:17;4.65;;;2.50;;
46745;SDS011;32493;50.514;9.678;2023-07-31T04:26:26;5.60;;;2.22;;
46745;SDS011;32493;50.514;9.678;2023-07-31T04:28:47;5.15;;;1.98;;
46745;SDS011;32493;50.514;9.678;2023-07-31T04:30:54;6.82;;;2.40;;
46745;SDS011;32493;50.514;9.678;2023-07-31T04:33:00;6.80;;;2.35;;
46745;SDS011;32493;50.514;9.678;2023-07-31T04:35:04;8.13;;;2.03;;
46745;SDS011;32493;50.514;9.678;2023-07-31T04:37:12;9.75;;;2.15;;
46745;SDS011;32493;50.514;9.678;2023-07-31T04:39:22;7.22;;;2.60;;
46745;SDS011;32493;50.514;9.678;2023-07-31T04:41:28;4.13;;;2.17;;
46745;SDS011;32493;50.514;9.678;2023-07-31T04:43:37;6.82;;;2.30;;
46745;SDS011;32493;50.514;9.678;2023-07-31T04:45:44;6.28;;;2.10;;
46745;SDS011;32493;50.514;9.678;2023-07-31T04:47:52;5.40;;;2.65;;
46745;SDS011;32493;50.514;9.678;2023-07-31T04:49:58;3.58;;;1.60;;
46745;SDS011;32493;50.514;9.678;2023-07-31T04:52:06;10.63;;;2.28;;
46745;SDS011;32493;50.514;9.678;2023-07-31T04:54:16;8.65;;;2.38;;
46745;SDS011;32493;50.514;9.678;2023-07-31T04:56:21;5.55;;;2.20;;
46745;SDS011;32493;50.514;9.678;2023-07-31T04:58:29;4.15;;;2.05;;
46745;SDS011;32493;50.514;9.678;2023-07-31T05:00:39;12.30;;;2.45;;
46745;SDS011;32493;50.514;9.678;2023-07-31T05:02:45;2.42;;;1.27;;
46745;SDS011;32493;50.514;9.678;2023-07-31T05:04:56;5.80;;;2.00;;
46745;SDS011;32493;50.514;9.678;2023-07-31T05:07:02;5.63;;;2.38;;
46745;SDS011;32493;50.514;9.678;2023-07-31T05:09:09;6.75;;;2.13;;
46745;SDS011;32493;50.514;9.678;2023-07-31T05:11:15;6.35;;;2.28;;
46745;SDS011;32493;50.514;9.678;2023-07-31T05:13:21;7.47;;;2.17;;
46745;SDS011;32493;50.514;9.678;2023-07-31T05:15:30;7.30;;;2.65;;
46745;SDS011;32493;50.514;9.678;2023-07-31T05:17:40;8.38;;;2.38;;
46745;SDS011;32493;50.514;9.678;2023-07-31T05:19:50;9.60;;;2.45;;
46745;SDS011;32493;50.514;9.678;2023-07-31T05:21:55;11.15;;;2.10;;
46745;SDS011;32493;50.514;9.678;2023-07-31T05:24:01;7.15;;;2.45;;
46745;SDS011;32493;50.514;9.678;2023-07-31T05:26:07;8.52;;;2.53;;
46745;SDS011;32493;50.514;9.678;2023-07-31T05:28:17;9.85;;;2.55;;
46745;SDS011;32493;50.514;9.678;2023-07-31T05:30:29;4.90;;;2.20;;
46745;SDS011;32493;50.514;9.678;2023-07-31T05:32:35;6.93;;;2.57;;
46745;SDS011;32493;50.514;9.678;2023-07-31T05:34:44;8.40;;;2.58;;
46745;SDS011;32493;50.514;9.678;2023-07-31T05:36:49;7.18;;;2.65;;
46745;SDS011;32493;50.514;9.678;2023-07-31T05:38:55;5.95;;;2.42;;
46745;SDS011;32493;50.514;9.678;2023-07-31T05:41:01;5.80;;;2.30;;
46745;SDS011;32493;50.514;9.678;2023-07-31T05:43:13;9.30;;;2.30;;
46745;SDS011;32493;50.514;9.678;2023-07-31T05:45:19;7.38;;;2.80;;
46745;SDS011;32493;50.514;9.678;2023-07-31T05:47:25;8.40;;;2.63;;
46745;SDS011;32493;50.514;9.678;2023-07-31T05:49:34;4.95;;;2.05;;
46745;SDS011;32493;50.514;9.678;2023-07-31T05:51:42;7.32;;;2.53;;
46745;SDS011;32493;50.514;9.678;2023-07-31T05:53:47;6.35;;;2.60;;
46745;SDS011;32493;50.514;9.678;2023-07-31T05:55:53;5.70;;;2.30;;
46745;SDS011;32493;50.514;9.678;2023-07-31T05:57:56;7.07;;;2.60;;
46745;SDS011;32493;50.514;9.678;2023-07-31T06:00:03;9.00;;;2.70;;
46745;SDS011;32493;50.514;9.678;2023-07-31T06:02:10;7.75;;;2.30;;
46745;SDS011;32493;50.514;9.678;2023-07-31T06:04:17;8.70;;;2.60;;
46745;SDS011;32493;50.514;9.678;2023-07-31T06:06:26;5.53;;;2.00;;
46745;SDS011;32493;50.514;9.678;2023-07-31T06:08:42;8.30;;;2.50;;
46745;SDS011;32493;50.514;9.678;2023-07-31T06:10:51;7.53;;;2.53;;
46745;SDS011;32493;50.514;9.678;2023-07-31T06:12:55;8.90;;;3.15;;
46745;SDS011;32493;50.514;9.678;2023-07-31T06:15:01;5.53;;;2.70;;
46745;SDS011;32493;50.514;9.678;2023-07-31T06:17:09;8.95;;;2.80;;
46745;SDS011;32493;50.514;9.678;2023-07-31T06:19:17;8.68;;;2.30;;
46745;SDS011;32493;50.514;9.678;2023-07-31T06:21:24;10.43;;;2.72;;
46745;SDS011;32493;50.514;9.678;2023-07-31T06:23:31;7.68;;;2.50;;
46745;SDS011;32493;50.514;9.678;2023-07-31T06:25:41;7.60;;;2.65;;
46745;SDS011;32493;50.514;9.678;2023-07-31T06:27:51;8.43;;;2.70;;
46745;SDS011;32493;50.514;9.678;2023-07-31T06:29:58;7.03;;;2.88;;
46745;SDS011;32493;50.514;9.678;2023-07-31T06:32:04;8.15;;;2.67;;
46745;SDS011;32493;50.514;9.678;2023-07-31T06:34:10;5.72;;;2.70;;
46745;SDS011;32493;50.514;9.678;2023-07-31T06:36:16;7.93;;;2.85;;
46745;SDS011;32493;50.514;9.678;2023-07-31T06:38:28;8.15;;;2.80;;
46745;SDS011;32493;50.514;9.678;2023-07-31T06:40:37;8.43;;;3.05;;
46745;SDS011;32493;50.514;9.678;2023-07-31T06:42:43;8.27;;;2.50;;
46745;SDS011;32493;50.514;9.678;2023-07-31T06:44:48;6.65;;;2.47;;
46745;SDS011;32493;50.514;9.678;2023-07-31T06:46:53;7.65;;;2.70;;
46745;SDS011;32493;50.514;9.678;2023-07-31T06:48:59;9.75;;;2.50;;
46745;SDS011;32493;50.514;9.678;2023-07-31T06:51:05;9.40;;;2.70;;
46745;SDS011;32493;50.514;9.678;2023-07-31T06:53:12;8.48;;;2.97;;
46745;SDS011;32493;50.514;9.678;2023-07-31T06:55:18;6.90;;;2.55;;
46745;SDS011;32493;50.514;9.678;2023-07-31T06:59:43;8.25;;;2.40;;
46745;SDS011;32493;50.514;9.678;2023-07-31T07:01:50;7.47;;;2.40;;
46745;SDS011;32493;50.514;9.678;2023-07-31T07:03:57;8.35;;;3.17;;
46745;SDS011;32493;50.514;9.678;2023-07-31T07:06:03;9.63;;;2.70;;
46745;SDS011;32493;50.514;9.678;2023-07-31T07:08:06;7.68;;;2.65;;
46745;SDS011;32493;50.514;9.678;2023-07-31T07:10:11;8.65;;;3.15;;
46745;SDS011;32493;50.514;9.678;2023-07-31T07:12:19;10.68;;;2.67;;
46745;SDS011;32493;50.514;9.678;2023-07-31T07:14:27;10.18;;;3.20;;
46745;SDS011;32493;50.514;9.678;2023-07-31T07:16:33;7.55;;;2.33;;
46745;SDS011;32493;50.514;9.678;2023-07-31T07:18:41;8.40;;;2.47;;
46745;SDS011;32493;50.514;9.678;2023-07-31T07:21:04;5.70;;;2.70;;
46745;SDS011;32493;50.514;9.678;2023-07-31T07:23:10;5.43;;;2.53;;
46745;SDS011;32493;50.514;9.678;2023-07-31T07:25:16;9.23;;;2.60;;
46745;SDS011;32493;50.514;9.678;2023-07-31T07:27:22;9.90;;;2.72;;
46745;SDS011;32493;50.514;9.678;2023-07-31T07:29:31;9.38;;;2.90;;
46745;SDS011;32493;50.514;9.678;2023-07-31T07:31:38;10.55;;;2.60;;
46745;SDS011;32493;50.514;9.678;2023-07-31T07:33:44;7.97;;;2.60;;
46745;SDS011;32493;50.514;9.678;2023-07-31T07:35:50;8.32;;;2.67;;
46745;SDS011;32493;50.514;9.678;2023-07-31T07:37:55;6.95;;;2.70;;
46745;SDS011;32493;50.514;9.678;2023-07-31T07:40:02;7.55;;;3.55;;
46745;SDS011;32493;50.514;9.678;2023-07-31T07:44:14;8.85;;;2.42;;
46745;SDS011;32493;50.514;9.678;2023-07-31T07:46:20;5.93;;;2.50;;
46745;SDS011;32493;50.514;9.678;2023-07-31T07:48:27;6.85;;;2.80;;
46745;SDS011;32493;50.514;9.678;2023-07-31T07:50:34;9.65;;;2.95;;
46745;SDS011;32493;50.514;9.678;2023-07-31T07:52:42;8.32;;;2.75;;
46745;SDS011;32493;50.514;9.678;2023-07-31T07:54:48;9.02;;;2.83;;
46745;SDS011;32493;50.514;9.678;2023-07-31T07:56:57;10.30;;;2.50;;
46745;SDS011;32493;50.514;9.678;2023-07-31T07:59:03;5.70;;;2.70;;
46745;SDS011;32493;50.514;9.678;2023-07-31T08:01:09;8.82;;;3.30;;
46745;SDS011;32493;50.514;9.678;2023-07-31T08:03:17;7.30;;;3.20;;
46745;SDS011;32493;50.514;9.678;2023-07-31T08:05:23;7.43;;;2.97;;
46745;SDS011;32493;50.514;9.678;2023-07-31T08:07:33;8.18;;;3.42;;
46745;SDS011;32493;50.514;9.678;2023-07-31T08:09:42;6.70;;;2.63;;
46745;SDS011;32493;50.514;9.678;2023-07-31T08:11:47;12.95;;;3.47;;
46745;SDS011;32493;50.514;9.678;2023-07-31T08:13:53;4.65;;;2.45;;
46745;SDS011;32493;50.514;9.678;2023-07-31T08:15:58;10.50;;;2.80;;
46745;SDS011;32493;50.514;9.678;2023-07-31T08:18:10;8.10;;;3.08;;
46745;SDS011;32493;50.514;9.678;2023-07-31T08:20:20;7.50;;;2.60;;
46745;SDS011;32493;50.514;9.678;2023-07-31T08:22:26;12.20;;;3.20;;
46745;SDS011;32493;50.514;9.678;2023-07-31T08:24:31;8.20;;;2.83;;
46745;SDS011;32493;50.514;9.678;2023-07-31T08:26:37;8.93;;;3.10;;
46745;SDS011;32493;50.514;9.678;2023-07-31T08:28:44;8.38;;;2.70;;
46745;SDS011;32493;50.514;9.678;2023-07-31T08:30:50;11.93;;;2.90;;
46745;SDS011;32493;50.514;9.678;2023-07-31T08:32:54;8.63;;;3.17;;
46745;SDS011;32493;50.514;9.678;2023-07-31T08:35:03;9.00;;;2.90;;
46745;SDS011;32493;50.514;9.678;2023-07-31T08:37:12;6.45;;;2.90;;
46745;SDS011;32493;50.514;9.678;2023-07-31T08:39:19;8.77;;;2.72;;
46745;SDS011;32493;50.514;9.678;2023-07-31T08:41:28;7.82;;;2.75;;
46745;SDS011;32493;50.514;9.678;2023-07-31T08:43:35;6.95;;;2.88;;
46745;SDS011;32493;50.514;9.678;2023-07-31T08:45:47;5.72;;;2.60;;
46745;SDS011;32493;50.514;9.678;2023-07-31T08:47:55;9.85;;;3.88;;
46745;SDS011;32493;50.514;9.678;2023-07-31T08:50:01;8.10;;;2.65;;
46745;SDS011;32493;50.514;9.678;2023-07-31T08:52:08;9.38;;;2.92;;
46745;SDS011;32493;50.514;9.678;2023-07-31T08:54:18;5.18;;;1.77;;
46745;SDS011;32493;50.514;9.678;2023-07-31T08:56:24;9.88;;;3.22;;
46745;SDS011;32493;50.514;9.678;2023-07-31T08:58:34;7.85;;;2.97;;
46745;SDS011;32493;50.514;9.678;2023-07-31T09:00:43;8.65;;;3.17;;
46745;SDS011;32493;50.514;9.678;2023-07-31T09:02:56;8.80;;;3.15;;
46745;SDS011;32493;50.514;9.678;2023-07-31T09:05:07;8.93;;;2.83;;
46745;SDS011;32493;50.514;9.678;2023-07-31T09:07:16;7.63;;;2.75;;
46745;SDS011;32493;50.514;9.678;2023-07-31T09:09:22;8.07;;;3.00;;
46745;SDS011;32493;50.514;9.678;2023-07-31T09:11:28;7.10;;;2.97;;
46745;SDS011;32493;50.514;9.678;2023-07-31T09:13:34;7.75;;;3.08;;
46745;SDS011;32493;50.514;9.678;2023-07-31T09:15:42;6.15;;;3.00;;
46745;SDS011;32493;50.514;9.678;2023-07-31T09:17:52;7.85;;;3.10;;
46745;SDS011;32493;50.514;9.678;2023-07-31T09:20:14;9.18;;;3.00;;
46745;SDS011;32493;50.514;9.678;2023-07-31T09:22:33;8.30;;;3.13;;
46745;SDS011;32493;50.514;9.678;2023-07-31T09:24:40;12.73;;;3.78;;
46745;SDS011;32493;50.514;9.678;2023-07-31T09:26:45;6.57;;;2.45;;
46745;SDS011;32493;50.514;9.678;2023-07-31T09:28:52;6.68;;;2.90;;
46745;SDS011;32493;50.514;9.678;2023-07-31T09:31:04;7.07;;;3.20;;
46745;SDS011;32493;50.514;9.678;2023-07-31T09:33:10;4.35;;;1.48;;
46745;SDS011;32493;50.514;9.678;2023-07-31T09:35:20;7.40;;;3.08;;
46745;SDS011;32493;50.514;9.678;2023-07-31T09:37:29;6.15;;;3.30;;
46745;SDS011;32493;50.514;9.678;2023-07-31T09:39:47;5.35;;;2.47;;
46745;SDS011;32493;50.514;9.678;2023-07-31T09:42:00;7.90;;;3.10;;
46745;SDS011;32493;50.514;9.678;2023-07-31T09:44:05;6.28;;;2.97;;
46745;SDS011;32493;50.514;9.678;2023-07-31T09:46:12;7.25;;;3.05;;
46745;SDS011;32493;50.514;9.678;2023-07-31T09:48:18;6.78;;;3.05;;
46745;SDS011;32493;50.514;9.678;2023-07-31T09:50:30;6.00;;;2.45;;
46745;SDS011;32493;50.514;9.678;2023-07-31T09:52:37;5.93;;;2.80;;
46745;SDS011;32493;50.514;9.678;2023-07-31T09:54:40;7.82;;;2.65;;
46745;SDS011;32493;50.514;9.678;2023-07-31T09:56:49;9.82;;;2.70;;
46745;SDS011;32493;50.514;9.678;2023-07-31T09:58:55;7.30;;;2.80;;
46745;SDS011;32493;50.514;9.678;2023-07-31T10:01:03;7.20;;;3.10;;
46745;SDS011;32493;50.514;9.678;2023-07-31T10:03:10;7.65;;;2.78;;
46745;SDS011;32493;50.514;9.678;2023-07-31T10:05:17;8.02;;;3.03;;
46745;SDS011;32493;50.514;9.678;2023-07-31T10:07:25;6.43;;;2.40;;
46745;SDS011;32493;50.514;9.678;2023-07-31T10:09:36;6.32;;;3.00;;
46745;SDS011;32493;50.514;9.678;2023-07-31T10:11:42;6.93;;;2.80;;
46745;SDS011;32493;50.514;9.678;2023-07-31T10:13:56;5.40;;;2.80;;
46745;SDS011;32493;50.514;9.678;2023-07-31T10:16:02;5.85;;;2.85;;
46745;SDS011;32493;50.514;9.678;2023-07-31T10:18:09;5.65;;;2.53;;
46745;SDS011;32493;50.514;9.678;2023-07-31T10:20:15;7.47;;;2.40;;
46745;SDS011;32493;50.514;9.678;2023-07-31T10:22:22;8.65;;;3.22;;
46745;SDS011;32493;50.514;9.678;2023-07-31T10:24:31;6.43;;;3.17;;
46745;SDS011;32493;50.514;9.678;2023-07-31T10:26:39;9.98;;;2.95;;
46745;SDS011;32493;50.514;9.678;2023-07-31T10:28:49;8.20;;;3.22;;
46745;SDS011;32493;50.514;9.678;2023-07-31T10:31:01;7.75;;;2.90;;
46745;SDS011;32493;50.514;9.678;2023-07-31T10:33:08;10.18;;;3.22;;
46745;SDS011;32493;50.514;9.678;2023-07-31T10:35:14;9.57;;;3.22;;
46745;SDS011;32493;50.514;9.678;2023-07-31T10:37:22;6.68;;;2.92;;
46745;SDS011;32493;50.514;9.678;2023-07-31T10:39:35;7.97;;;3.45;;
46745;SDS011;32493;50.514;9.678;2023-07-31T10:41:44;7.82;;;3.30;;
46745;SDS011;32493;50.514;9.678;2023-07-31T10:43:54;9.20;;;3.40;;
46745;SDS011;32493;50.514;9.678;2023-07-31T10:46:06;9.57;;;3.35;;
46745;SDS011;32493;50.514;9.678;2023-07-31T10:48:12;6.55;;;3.17;;
46745;SDS011;32493;50.514;9.678;2023-07-31T10:50:20;8.55;;;3.42;;
46745;SDS011;32493;50.514;9.678;2023-07-31T10:52:26;9.40;;;3.40;;
46745;SDS011;32493;50.514;9.678;2023-07-31T10:54:40;9.90;;;3.45;;
46745;SDS011;32493;50.514;9.678;2023-07-31T10:56:45;9.32;;;3.13;;
46745;SDS011;32493;50.514;9.678;2023-07-31T10:59:00;8.20;;;3.10;;
46745;SDS011;32493;50.514;9.678;2023-07-31T11:01:08;8.07;;;2.95;;
46745;SDS011;32493;50.514;9.678;2023-07-31T11:03:17;5.60;;;2.50;;
46745;SDS011;32493;50.514;9.678;2023-07-31T11:07:47;7.07;;;2.65;;
46745;SDS011;32493;50.514;9.678;2023-07-31T11:09:53;8.23;;;3.20;;
46745;SDS011;32493;50.514;9.678;2023-07-31T11:11:59;6.75;;;2.53;;
46745;SDS011;32493;50.514;9.678;2023-07-31T11:14:04;7.13;;;3.13;;
46745;SDS011;32493;50.514;9.678;2023-07-31T11:16:13;8.30;;;3.13;;
46745;SDS011;32493;50.514;9.678;2023-07-31T11:18:20;6.45;;;2.92;;
46745;SDS011;32493;50.514;9.678;2023-07-31T11:20:28;8.55;;;3.50;;
46745;SDS011;32493;50.514;9.678;2023-07-31T11:22:35;8.05;;;3.00;;
46745;SDS011;32493;50.514;9.678;2023-07-31T11:24:41;10.95;;;3.38;;
46745;SDS011;32493;50.514;9.678;2023-07-31T11:26:49;8.90;;;3.40;;
46745;SDS011;32493;50.514;9.678;2023-07-31T11:28:54;11.18;;;3.40;;
46745;SDS011;32493;50.514;9.678;2023-07-31T11:31:01;8.45;;;3.13;;
46745;SDS011;32493;50.514;9.678;2023-07-31T11:33:13;10.38;;;3.17;;
46745;SDS011;32493;50.514;9.678;2023-07-31T11:35:19;10.07;;;3.40;;
46745;SDS011;32493;50.514;9.678;2023-07-31T11:37:23;5.90;;;2.80;;
46745;SDS011;32493;50.514;9.678;2023-07-31T11:39:32;3.88;;;2.25;;
46745;SDS011;32493;50.514;9.678;2023-07-31T11:41:40;6.90;;;2.85;;
46745;SDS011;32493;50.514;9.678;2023-07-31T11:43:47;7.97;;;2.88;;
46745;SDS011;32493;50.514;9.678;2023-07-31T11:45:53;7.38;;;3.35;;
46745;SDS011;32493;50.514;9.678;2023-07-31T11:48:00;7.30;;;2.97;;
46745;SDS011;32493;50.514;9.678;2023-07-31T11:52:17;9.82;;;3.08;;
46745;SDS011;32493;50.514;9.678;2023-07-31T11:54:25;8.82;;;3.10;;
46745;SDS011;32493;50.514;9.678;2023-07-31T11:56:30;7.00;;;2.92;;
46745;SDS011;32493;50.514;9.678;2023-07-31T11:58:37;8.48;;;2.70;;
46745;SDS011;32493;50.514;9.678;2023-07-31T12:00:47;6.80;;;2.85;;
46745;SDS011;32493;50.514;9.678;2023-07-31T12:02:54;7.45;;;3.33;;
46745;SDS011;32493;50.514;9.678;2023-07-31T12:05:00;8.23;;;3.25;;
46745;SDS011;32493;50.514;9.678;2023-07-31T12:07:06;10.68;;;3.25;;
46745;SDS011;32493;50.514;9.678;2023-07-31T12:09:14;6.30;;;2.63;;
46745;SDS011;32493;50.514;9.678;2023-07-31T12:11:21;10.90;;;3.67;;
46745;SDS011;32493;50.514;9.678;2023-07-31T12:13:30;7.43;;;3.50;;
46745;SDS011;32493;50.514;9.678;2023-07-31T12:15:37;11.18;;;3.92;;
46745;SDS011;32493;50.514;9.678;2023-07-31T12:17:47;9.52;;;3.50;;
46745;SDS011;32493;50.514;9.678;2023-07-31T12:19:55;6.65;;;3.22;;
46745;SDS011;32493;50.514;9.678;2023-07-31T12:22:02;10.60;;;2.92;;
46745;SDS011;32493;50.514;9.678;2023-07-31T12:24:23;5.70;;;2.65;;
46745;SDS011;32493;50.514;9.678;2023-07-31T12:26:33;6.95;;;3.15;;
46745;SDS011;32493;50.514;9.678;2023-07-31T12:28:40;5.95;;;3.08;;
46745;SDS011;32493;50.514;9.678;2023-07-31T12:30:48;11.80;;;2.88;;
46745;SDS011;32493;50.514;9.678;2023-07-31T12:32:54;7.82;;;2.80;;
46745;SDS011;32493;50.514;9.678;2023-07-31T12:34:59;8.95;;;3.38;;
46745;SDS011;32493;50.514;9.678;2023-07-31T12:37:06;8.05;;;3.33;;
46745;SDS011;32493;50.514;9.678;2023-07-31T12:39:14;7.13;;;3.13;;
46745;SDS011;32493;50.514;9.678;2023-07-31T12:41:21;9.23;;;3.17;;
46745;SDS011;32493;50.514;9.678;2023-07-31T12:43:32;7.60;;;3.17;;
46745;SDS011;32493;50.514;9.678;2023-07-31T12:45:35;6.20;;;2.25;;
46745;SDS011;32493;50.514;9.678;2023-07-31T12:47:42;7.40;;;2.83;;
46745;SDS011;32493;50.514;9.678;2023-07-31T12:49:48;7.20;;;3.13;;
46745;SDS011;32493;50.514;9.678;2023-07-31T12:51:54;6.03;;;2.70;;
46745;SDS011;32493;50.514;9.678;2023-07-31T12:53:59;8.00;;;3.00;;
46745;SDS011;32493;50.514;9.678;2023-07-31T12:56:08;8.60;;;2.80;;
46745;SDS011;32493;50.514;9.678;2023-07-31T12:58:19;6.60;;;3.00;;
46745;SDS011;32493;50.514;9.678;2023-07-31T13:00:24;5.88;;;2.90;;
46745;SDS011;32493;50.514;9.678;2023-07-31T13:02:30;6.90;;;3.13;;